sensor_id;sensor_type;location;lat;lon;timestamp;pressure;altitude;pressure_sealevel;temperature;humidity
63715;BME280;49858;48.956;9.076;2022-07-06T00:01:46;99291.50;;;20.09;48.18
63715;BME280;49858;48.956;9.076;2022-07-06T00:04:12;99299.53;;;19.97;48.65
63715;BME280;49858;48.956;9.076;2022-07-06T00:06:41;99307.56;;;19.80;48.85
63715;BME280;49858;48.956;9.076;2022-07-06T00:09:07;99297.13;;;19.99;48.64
63715;BME280;49858;48.956;9.076;2022-07-06T00:11:34;99301.91;;;20.02;48.63
63715;BME280;49858;48.956;9.076;2022-07-06T00:14:01;99302.13;;;20.39;47.91
63715;BME280;49858;48.956;9.076;2022-07-06T00:16:28;99295.59;;;19.87;49.14
63715;BME280;49858;48.956;9.076;2022-07-06T00:18:55;99298.06;;;19.63;49.97
63715;BME280;49858;48.956;9.076;2022-07-06T00:21:22;99295.25;;;19.49;50.64
63715;BME280;49858;48.956;9.076;2022-07-06T00:23:50;99294.44;;;19.66;50.04
63715;BME280;49858;48.956;9.076;2022-07-06T00:26:17;99286.00;;;19.84;49.83
63715;BME280;49858;48.956;9.076;2022-07-06T00:28:44;99291.66;;;19.66;49.96
63715;BME280;49858;48.956;9.076;2022-07-06T00:31:11;99291.59;;;19.88;49.66
63715;BME280;49858;48.956;9.076;2022-07-06T00:33:38;99289.19;;;19.90;49.56
63715;BME280;49858;48.956;9.076;2022-07-06T00:36:04;99296.63;;;20.18;48.76
63715;BME280;49858;48.956;9.076;2022-07-06T00:38:31;99301.03;;;20.19;48.59
63715;BME280;49858;48.956;9.076;2022-07-06T00:40:59;99298.84;;;19.68;49.52
63715;BME280;49858;48.956;9.076;2022-07-06T00:43:26;99298.50;;;19.15;51.10
63715;BME280;49858;48.956;9.076;2022-07-06T00:45:53;99300.50;;;19.11;51.51
63715;BME280;49858;48.956;9.076;2022-07-06T00:48:20;99296.09;;;18.78;52.54
63715;BME280;49858;48.956;9.076;2022-07-06T00:50:46;99299.66;;;18.64;52.91
63715;BME280;49858;48.956;9.076;2022-07-06T00:53:13;99297.31;;;18.92;52.48
63715;BME280;49858;48.956;9.076;2022-07-06T00:55:40;99297.31;;;19.02;52.03
63715;BME280;49858;48.956;9.076;2022-07-06T00:58:09;99298.91;;;19.03;51.88
63715;BME280;49858;48.956;9.076;2022-07-06T01:00:35;99307.25;;;19.03;52.05
63715;BME280;49858;48.956;9.076;2022-07-06T01:03:03;99301.69;;;19.07;51.14
63715;BME280;49858;48.956;9.076;2022-07-06T01:05:29;99296.09;;;18.78;52.46
63715;BME280;49858;48.956;9.076;2022-07-06T01:07:56;99294.50;;;18.81;52.37
63715;BME280;49858;48.956;9.076;2022-07-06T01:10:23;99300.50;;;18.94;51.71
63715;BME280;49858;48.956;9.076;2022-07-06T01:12:50;99296.84;;;18.64;52.44
63715;BME280;49858;48.956;9.076;2022-07-06T01:15:19;99291.72;;;18.84;52.13
63715;BME280;49858;48.956;9.076;2022-07-06T01:17:47;99286.97;;;18.92;51.79
63715;BME280;49858;48.956;9.076;2022-07-06T01:20:17;99290.94;;;18.98;51.37
63715;BME280;49858;48.956;9.076;2022-07-06T01:22:44;99285.34;;;18.98;51.51
63715;BME280;49858;48.956;9.076;2022-07-06T01:25:11;99288.94;;;18.81;52.38
63715;BME280;49858;48.956;9.076;2022-07-06T01:27:39;99290.53;;;18.75;52.38
63715;BME280;49858;48.956;9.076;2022-07-06T01:30:08;99270.22;;;18.85;51.86
63715;BME280;49858;48.956;9.076;2022-07-06T01:32:36;99281.38;;;18.85;51.94
63715;BME280;49858;48.956;9.076;2022-07-06T01:35:05;99272.19;;;18.59;52.58
63715;BME280;49858;48.956;9.076;2022-07-06T01:37:34;99284.09;;;18.53;53.22
63715;BME280;49858;48.956;9.076;2022-07-06T01:40:03;99274.22;;;19.02;51.00
63715;BME280;49858;48.956;9.076;2022-07-06T01:42:30;99278.50;;;18.53;52.25
63715;BME280;49858;48.956;9.076;2022-07-06T01:44:58;99278.88;;;18.33;52.70
63715;BME280;49858;48.956;9.076;2022-07-06T01:47:24;99277.34;;;18.50;52.40
63715;BME280;49858;48.956;9.076;2022-07-06T01:49:51;99278.91;;;18.44;52.27
63715;BME280;49858;48.956;9.076;2022-07-06T01:52:20;99274.06;;;18.12;52.87
63715;BME280;49858;48.956;9.076;2022-07-06T01:54:48;99275.31;;;18.33;52.56
63715;BME280;49858;48.956;9.076;2022-07-06T01:57:15;99280.47;;;18.31;51.91
63715;BME280;49858;48.956;9.076;2022-07-06T01:59:42;99275.72;;;18.35;51.81
63715;BME280;49858;48.956;9.076;2022-07-06T02:02:09;99278.09;;;18.33;51.56
63715;BME280;49858;48.956;9.076;2022-07-06T02:04:36;99280.09;;;18.47;51.56
63715;BME280;49858;48.956;9.076;2022-07-06T02:07:03;99292.00;;;18.29;51.74
63715;BME280;49858;48.956;9.076;2022-07-06T02:09:30;99288.03;;;18.34;51.75
63715;BME280;49858;48.956;9.076;2022-07-06T02:11:58;99290.81;;;18.34;52.04
63715;BME280;49858;48.956;9.076;2022-07-06T02:14:25;99293.56;;;18.20;52.28
63715;BME280;49858;48.956;9.076;2022-07-06T02:16:52;99297.56;;;18.29;51.86
63715;BME280;49858;48.956;9.076;2022-07-06T02:19:18;99296.25;;;17.95;52.55
63715;BME280;49858;48.956;9.076;2022-07-06T02:21:45;99293.53;;;18.09;52.82
63715;BME280;49858;48.956;9.076;2022-07-06T02:24:12;99294.75;;;18.15;52.07
63715;BME280;49858;48.956;9.076;2022-07-06T02:26:39;99296.69;;;18.00;52.47
63715;BME280;49858;48.956;9.076;2022-07-06T02:29:07;99287.16;;;18.05;52.74
63715;BME280;49858;48.956;9.076;2022-07-06T02:31:34;99298.66;;;17.93;52.71
63715;BME280;49858;48.956;9.076;2022-07-06T02:34:01;99289.47;;;17.85;53.06
63715;BME280;49858;48.956;9.076;2022-07-06T02:36:27;99293.91;;;18.04;52.44
63715;BME280;49858;48.956;9.076;2022-07-06T02:38:54;99289.13;;;18.01;52.70
63715;BME280;49858;48.956;9.076;2022-07-06T02:41:21;99282.78;;;18.11;52.60
63715;BME280;49858;48.956;9.076;2022-07-06T02:43:47;99288.66;;;17.84;52.63
63715;BME280;49858;48.956;9.076;2022-07-06T02:46:16;99302.59;;;17.92;53.06
63715;BME280;49858;48.956;9.076;2022-07-06T02:48:44;99299.03;;;17.91;52.62
63715;BME280;49858;48.956;9.076;2022-07-06T02:51:11;99310.09;;;17.77;53.51
63715;BME280;49858;48.956;9.076;2022-07-06T02:53:38;99303.41;;;17.88;53.41
63715;BME280;49858;48.956;9.076;2022-07-06T02:56:06;99305.63;;;17.69;55.26
63715;BME280;49858;48.956;9.076;2022-07-06T02:58:33;99308.06;;;16.71;58.41
63715;BME280;49858;48.956;9.076;2022-07-06T03:01:00;99309.69;;;16.01;62.17
63715;BME280;49858;48.956;9.076;2022-07-06T03:03:28;99315.09;;;15.90;62.75
63715;BME280;49858;48.956;9.076;2022-07-06T03:05:56;99309.34;;;15.76;63.12
63715;BME280;49858;48.956;9.076;2022-07-06T03:08:23;99308.81;;;15.93;62.95
63715;BME280;49858;48.956;9.076;2022-07-06T03:10:50;99323.66;;;15.78;62.93
63715;BME280;49858;48.956;9.076;2022-07-06T03:13:16;99313.72;;;16.07;62.51
63715;BME280;49858;48.956;9.076;2022-07-06T03:15:44;99311.41;;;16.13;61.96
63715;BME280;49858;48.956;9.076;2022-07-06T03:18:11;99321.47;;;16.24;62.15
63715;BME280;49858;48.956;9.076;2022-07-06T03:20:39;99323.19;;;16.02;62.19
63715;BME280;49858;48.956;9.076;2022-07-06T03:23:09;99333.59;;;15.79;63.27
63715;BME280;49858;48.956;9.076;2022-07-06T03:25:38;99334.22;;;15.95;62.75
63715;BME280;49858;48.956;9.076;2022-07-06T03:28:05;99337.50;;;16.04;63.30
63715;BME280;49858;48.956;9.076;2022-07-06T03:30:31;99327.97;;;15.75;63.48
63715;BME280;49858;48.956;9.076;2022-07-06T03:32:59;99331.91;;;16.01;62.63
63715;BME280;49858;48.956;9.076;2022-07-06T03:35:27;99330.44;;;16.10;61.87
63715;BME280;49858;48.956;9.076;2022-07-06T03:37:56;99322.63;;;16.20;61.75
63715;BME280;49858;48.956;9.076;2022-07-06T03:40:27;99329.91;;;16.35;60.87
63715;BME280;49858;48.956;9.076;2022-07-06T03:42:54;99330.31;;;16.33;61.17
63715;BME280;49858;48.956;9.076;2022-07-06T03:45:21;99329.31;;;16.52;60.75
63715;BME280;49858;48.956;9.076;2022-07-06T03:47:48;99331.81;;;16.27;61.19
63715;BME280;49858;48.956;9.076;2022-07-06T03:50:15;99332.34;;;16.40;60.77
63715;BME280;49858;48.956;9.076;2022-07-06T03:52:41;99337.09;;;16.40;61.11
63715;BME280;49858;48.956;9.076;2022-07-06T03:55:11;99341.41;;;16.33;61.30
63715;BME280;49858;48.956;9.076;2022-07-06T03:57:42;99340.28;;;16.38;61.49
63715;BME280;49858;48.956;9.076;2022-07-06T04:00:14;99338.94;;;16.25;61.46
63715;BME280;49858;48.956;9.076;2022-07-06T04:02:44;99335.50;;;16.39;61.48
63715;BME280;49858;48.956;9.076;2022-07-06T04:05:17;99342.66;;;16.40;61.51
63715;BME280;49858;48.956;9.076;2022-07-06T04:07:46;99341.72;;;16.25;61.80
63715;BME280;49858;48.956;9.076;2022-07-06T04:10:14;99336.84;;;16.18;62.25
63715;BME280;49858;48.956;9.076;2022-07-06T04:12:41;99344.97;;;16.34;61.56
63715;BME280;49858;48.956;9.076;2022-07-06T04:15:10;99352.88;;;16.32;61.87
63715;BME280;49858;48.956;9.076;2022-07-06T04:17:37;99346.91;;;16.30;62.40
63715;BME280;49858;48.956;9.076;2022-07-06T04:20:23;99352.81;;;16.25;62.00
63715;BME280;49858;48.956;9.076;2022-07-06T04:22:51;99352.81;;;16.25;62.65
63715;BME280;49858;48.956;9.076;2022-07-06T04:25:21;99354.41;;;16.26;62.59
63715;BME280;49858;48.956;9.076;2022-07-06T04:27:48;99354.53;;;17.15;61.20
63715;BME280;49858;48.956;9.076;2022-07-06T04:30:15;99359.00;;;16.82;61.54
63715;BME280;49858;48.956;9.076;2022-07-06T04:32:42;99363.16;;;17.02;60.88
63715;BME280;49858;48.956;9.076;2022-07-06T04:35:10;99363.63;;;17.11;60.52
63715;BME280;49858;48.956;9.076;2022-07-06T04:37:37;99367.91;;;17.02;61.05
63715;BME280;49858;48.956;9.076;2022-07-06T04:40:05;99360.19;;;17.25;59.88
63715;BME280;49858;48.956;9.076;2022-07-06T04:42:33;99371.47;;;17.47;59.27
63715;BME280;49858;48.956;9.076;2022-07-06T04:45:00;99375.88;;;17.51;59.17
63715;BME280;49858;48.956;9.076;2022-07-06T04:47:27;99371.88;;;17.49;59.25
63715;BME280;49858;48.956;9.076;2022-07-06T04:49:54;99386.88;;;17.85;57.65
63715;BME280;49858;48.956;9.076;2022-07-06T04:52:21;99373.41;;;17.94;57.79
63715;BME280;49858;48.956;9.076;2022-07-06T04:54:48;99374.53;;;17.86;58.21
63715;BME280;49858;48.956;9.076;2022-07-06T04:57:15;99379.25;;;17.75;58.32
63715;BME280;49858;48.956;9.076;2022-07-06T04:59:44;99374.13;;;17.80;58.58
63715;BME280;49858;48.956;9.076;2022-07-06T05:02:10;99373.81;;;18.00;57.44
63715;BME280;49858;48.956;9.076;2022-07-06T05:04:38;99379.94;;;18.34;57.10
63715;BME280;49858;48.956;9.076;2022-07-06T05:07:05;99385.44;;;18.20;56.52
63715;BME280;49858;48.956;9.076;2022-07-06T05:09:32;99383.97;;;18.40;56.81
63715;BME280;49858;48.956;9.076;2022-07-06T05:12:00;99386.59;;;18.08;57.07
63715;BME280;49858;48.956;9.076;2022-07-06T05:14:27;99384.75;;;18.44;56.66
63715;BME280;49858;48.956;9.076;2022-07-06T05:16:56;99388.09;;;18.85;55.63
63715;BME280;49858;48.956;9.076;2022-07-06T05:19:23;99391.13;;;18.41;56.57
63715;BME280;49858;48.956;9.076;2022-07-06T05:21:49;99390.47;;;18.83;55.41
63715;BME280;49858;48.956;9.076;2022-07-06T05:24:17;99394.94;;;19.34;53.76
63715;BME280;49858;48.956;9.076;2022-07-06T05:26:45;99389.34;;;19.41;53.37
63715;BME280;49858;48.956;9.076;2022-07-06T05:29:12;99398.28;;;18.35;56.68
63715;BME280;49858;48.956;9.076;2022-07-06T05:31:39;99400.81;;;18.76;55.92
63715;BME280;49858;48.956;9.076;2022-07-06T05:34:09;99397.69;;;18.99;54.97
63715;BME280;49858;48.956;9.076;2022-07-06T05:36:36;99395.69;;;19.03;54.90
63715;BME280;49858;48.956;9.076;2022-07-06T05:39:02;99402.28;;;18.45;56.25
63715;BME280;49858;48.956;9.076;2022-07-06T05:41:30;99404.94;;;18.20;56.91
63715;BME280;49858;48.956;9.076;2022-07-06T05:43:58;99407.38;;;18.28;56.34
63715;BME280;49858;48.956;9.076;2022-07-06T05:46:24;99408.59;;;18.31;56.53
63715;BME280;49858;48.956;9.076;2022-07-06T05:48:51;99413.56;;;18.80;55.89
63715;BME280;49858;48.956;9.076;2022-07-06T05:51:37;99402.31;;;18.55;56.13
63715;BME280;49858;48.956;9.076;2022-07-06T05:54:03;99410.69;;;18.59;56.61
63715;BME280;49858;48.956;9.076;2022-07-06T05:56:30;99401.69;;;19.12;54.92
63715;BME280;49858;48.956;9.076;2022-07-06T05:58:57;99404.88;;;19.35;54.58
63715;BME280;49858;48.956;9.076;2022-07-06T06:01:24;99403.28;;;19.38;53.90
63715;BME280;49858;48.956;9.076;2022-07-06T06:04:01;99401.66;;;19.94;52.21
63715;BME280;49858;48.956;9.076;2022-07-06T06:06:31;99396.06;;;18.94;54.35
63715;BME280;49858;48.956;9.076;2022-07-06T06:08:59;99407.22;;;18.94;54.69
63715;BME280;49858;48.956;9.076;2022-07-06T06:11:26;99417.97;;;18.88;54.50
63715;BME280;49858;48.956;9.076;2022-07-06T06:13:54;99407.69;;;19.25;54.22
63715;BME280;49858;48.956;9.076;2022-07-06T06:16:20;99406.47;;;19.47;53.14
63715;BME280;49858;48.956;9.076;2022-07-06T06:18:47;99414.41;;;19.02;54.11
63715;BME280;49858;48.956;9.076;2022-07-06T06:21:14;99404.06;;;19.96;52.64
63715;BME280;49858;48.956;9.076;2022-07-06T06:23:40;99414.44;;;19.84;52.93
63715;BME280;49858;48.956;9.076;2022-07-06T06:26:08;99415.06;;;20.53;50.15
63715;BME280;49858;48.956;9.076;2022-07-06T06:28:35;99415.25;;;19.49;52.60
63715;BME280;49858;48.956;9.076;2022-07-06T06:31:02;99415.16;;;20.13;51.76
63715;BME280;49858;48.956;9.076;2022-07-06T06:33:30;99429.19;;;19.35;53.28
63715;BME280;49858;48.956;9.076;2022-07-06T06:35:56;99417.66;;;19.69;53.02
63715;BME280;49858;48.956;9.076;2022-07-06T06:38:23;99436.38;;;19.50;53.07
63715;BME280;49858;48.956;9.076;2022-07-06T06:40:51;99421.56;;;20.10;52.24
63715;BME280;49858;48.956;9.076;2022-07-06T06:43:20;99427.69;;;21.45;48.67
63715;BME280;49858;48.956;9.076;2022-07-06T06:45:56;99424.91;;;20.86;49.16
63715;BME280;49858;48.956;9.076;2022-07-06T06:48:22;99418.19;;;21.35;48.13
63715;BME280;49858;48.956;9.076;2022-07-06T06:50:49;99416.03;;;21.54;47.17
63715;BME280;49858;48.956;9.076;2022-07-06T06:53:16;99430.28;;;20.34;50.60
63715;BME280;49858;48.956;9.076;2022-07-06T06:55:43;99424.19;;;20.64;49.30
63715;BME280;49858;48.956;9.076;2022-07-06T06:58:09;99421.63;;;19.82;51.26
63715;BME280;49858;48.956;9.076;2022-07-06T07:00:37;99421.44;;;20.46;50.27
63715;BME280;49858;48.956;9.076;2022-07-06T07:03:04;99416.84;;;19.86;51.39
63715;BME280;49858;48.956;9.076;2022-07-06T07:05:31;99419.72;;;20.81;50.37
63715;BME280;49858;48.956;9.076;2022-07-06T07:07:57;99422.81;;;19.59;52.14
63715;BME280;49858;48.956;9.076;2022-07-06T07:10:25;99410.91;;;20.86;49.87
63715;BME280;49858;48.956;9.076;2022-07-06T07:12:52;99418.44;;;19.87;51.99
63715;BME280;49858;48.956;9.076;2022-07-06T07:15:19;99415.91;;;20.35;50.74
63715;BME280;49858;48.956;9.076;2022-07-06T07:17:47;99418.91;;;21.47;48.28
63715;BME280;49858;48.956;9.076;2022-07-06T07:20:14;99418.81;;;22.40;46.19
63715;BME280;49858;48.956;9.076;2022-07-06T07:22:41;99426.91;;;22.31;44.79
63715;BME280;49858;48.956;9.076;2022-07-06T07:25:08;99420.28;;;22.14;45.30
63715;BME280;49858;48.956;9.076;2022-07-06T07:27:35;99423.03;;;22.21;45.19
63715;BME280;49858;48.956;9.076;2022-07-06T07:30:01;99417.25;;;21.53;46.23
63715;BME280;49858;48.956;9.076;2022-07-06T07:32:29;99424.84;;;21.52;48.04
63715;BME280;49858;48.956;9.076;2022-07-06T07:34:57;99420.38;;;21.62;47.30
63715;BME280;49858;48.956;9.076;2022-07-06T07:37:23;99408.53;;;20.84;49.35
63715;BME280;49858;48.956;9.076;2022-07-06T07:39:50;99410.63;;;21.32;48.98
63715;BME280;49858;48.956;9.076;2022-07-06T07:42:16;99416.81;;;21.58;47.31
63715;BME280;49858;48.956;9.076;2022-07-06T07:44:43;99416.34;;;21.07;48.54
63715;BME280;49858;48.956;9.076;2022-07-06T07:47:10;99410.97;;;21.38;48.26
63715;BME280;49858;48.956;9.076;2022-07-06T07:49:36;99411.69;;;22.97;44.13
63715;BME280;49858;48.956;9.076;2022-07-06T07:52:05;99413.44;;;23.64;42.03
63715;BME280;49858;48.956;9.076;2022-07-06T07:54:32;99410.97;;;24.53;40.41
63715;BME280;49858;48.956;9.076;2022-07-06T07:56:59;99414.34;;;24.84;39.12
63715;BME280;49858;48.956;9.076;2022-07-06T07:59:26;99415.97;;;24.02;40.46
63715;BME280;49858;48.956;9.076;2022-07-06T08:01:52;99404.38;;;24.80;38.52
63715;BME280;49858;48.956;9.076;2022-07-06T08:04:19;99414.00;;;23.52;41.56
63715;BME280;49858;48.956;9.076;2022-07-06T08:06:46;99413.03;;;23.62;41.84
63715;BME280;49858;48.956;9.076;2022-07-06T08:09:15;99417.84;;;24.09;41.29
63715;BME280;49858;48.956;9.076;2022-07-06T08:11:42;99422.69;;;23.85;40.36
63715;BME280;49858;48.956;9.076;2022-07-06T08:14:08;99429.84;;;23.89;40.40
63715;BME280;49858;48.956;9.076;2022-07-06T08:16:35;99420.16;;;24.37;38.96
63715;BME280;49858;48.956;9.076;2022-07-06T08:19:02;99418.66;;;24.69;39.24
63715;BME280;49858;48.956;9.076;2022-07-06T08:21:28;99403.44;;;24.27;39.37
63715;BME280;49858;48.956;9.076;2022-07-06T08:23:55;99410.56;;;21.84;43.76
63715;BME280;49858;48.956;9.076;2022-07-06T08:26:25;99409.97;;;22.04;43.89
63715;BME280;49858;48.956;9.076;2022-07-06T08:28:52;99411.97;;;22.41;43.54
63715;BME280;49858;48.956;9.076;2022-07-06T08:31:19;99417.59;;;23.02;42.21
63715;BME280;49858;48.956;9.076;2022-07-06T08:33:45;99417.66;;;22.34;42.97
63715;BME280;49858;48.956;9.076;2022-07-06T08:36:13;99415.84;;;24.09;40.66
63715;BME280;49858;48.956;9.076;2022-07-06T08:38:40;99407.69;;;24.35;39.54
63715;BME280;49858;48.956;9.076;2022-07-06T08:41:06;99413.44;;;25.23;37.86
63715;BME280;49858;48.956;9.076;2022-07-06T08:43:36;99418.19;;;25.59;37.51
63715;BME280;49858;48.956;9.076;2022-07-06T08:46:03;99405.81;;;24.08;39.53
63715;BME280;49858;48.956;9.076;2022-07-06T08:48:35;99409.25;;;25.32;37.25
63715;BME280;49858;48.956;9.076;2022-07-06T08:51:04;99404.81;;;25.14;38.14
63715;BME280;49858;48.956;9.076;2022-07-06T08:53:31;99411.00;;;25.06;38.01
63715;BME280;49858;48.956;9.076;2022-07-06T08:55:58;99412.66;;;25.56;38.07
63715;BME280;49858;48.956;9.076;2022-07-06T08:58:25;99406.63;;;26.61;35.31
63715;BME280;49858;48.956;9.076;2022-07-06T09:00:54;99407.53;;;25.67;37.10
63715;BME280;49858;48.956;9.076;2022-07-06T09:03:21;99412.28;;;26.03;36.97
63715;BME280;49858;48.956;9.076;2022-07-06T09:05:48;99416.41;;;26.43;36.11
63715;BME280;49858;48.956;9.076;2022-07-06T09:08:17;99421.88;;;26.63;36.01
63715;BME280;49858;48.956;9.076;2022-07-06T09:10:44;99425.22;;;27.13;34.35
63715;BME280;49858;48.956;9.076;2022-07-06T09:13:11;99422.59;;;24.32;38.57
63715;BME280;49858;48.956;9.076;2022-07-06T09:15:38;99425.44;;;25.60;37.92
63715;BME280;49858;48.956;9.076;2022-07-06T09:18:07;99416.97;;;24.12;40.26
63715;BME280;49858;48.956;9.076;2022-07-06T09:20:34;99424.41;;;26.87;35.77
63715;BME280;49858;48.956;9.076;2022-07-06T09:23:03;99428.28;;;25.08;38.16
63715;BME280;49858;48.956;9.076;2022-07-06T09:25:31;99426.91;;;24.40;39.50
63715;BME280;49858;48.956;9.076;2022-07-06T09:27:59;99420.66;;;24.52;39.32
63715;BME280;49858;48.956;9.076;2022-07-06T09:30:26;99425.66;;;26.44;36.27
63715;BME280;49858;48.956;9.076;2022-07-06T09:32:55;99430.38;;;27.65;33.76
63715;BME280;49858;48.956;9.076;2022-07-06T09:35:24;99424.91;;;25.82;35.96
63715;BME280;49858;48.956;9.076;2022-07-06T09:38:08;99422.94;;;25.13;37.28
63715;BME280;49858;48.956;9.076;2022-07-06T09:40:37;99427.19;;;26.16;35.79
63715;BME280;49858;48.956;9.076;2022-07-06T09:43:09;99426.03;;;25.19;37.33
63715;BME280;49858;48.956;9.076;2022-07-06T09:45:37;99431.53;;;24.07;40.02
63715;BME280;49858;48.956;9.076;2022-07-06T09:48:08;99430.28;;;25.27;38.50
63715;BME280;49858;48.956;9.076;2022-07-06T09:50:41;99426.84;;;26.30;35.46
63715;BME280;49858;48.956;9.076;2022-07-06T09:53:09;99441.50;;;24.91;37.72
63715;BME280;49858;48.956;9.076;2022-07-06T09:55:36;99437.22;;;24.66;37.40
63715;BME280;49858;48.956;9.076;2022-07-06T09:58:03;99445.69;;;27.30;33.84
63715;BME280;49858;48.956;9.076;2022-07-06T10:00:30;99438.00;;;28.82;32.15
63715;BME280;49858;48.956;9.076;2022-07-06T10:02:57;99438.25;;;28.96;31.15
63715;BME280;49858;48.956;9.076;2022-07-06T10:05:25;99445.06;;;28.20;31.89
63715;BME280;49858;48.956;9.076;2022-07-06T10:07:58;99450.34;;;28.31;31.97
63715;BME280;49858;48.956;9.076;2022-07-06T10:10:25;99440.44;;;27.92;32.34
63715;BME280;49858;48.956;9.076;2022-07-06T10:12:54;99439.53;;;29.36;30.21
63715;BME280;49858;48.956;9.076;2022-07-06T10:15:22;99437.00;;;26.69;34.19
63715;BME280;49858;48.956;9.076;2022-07-06T10:17:50;99448.84;;;27.57;32.85
63715;BME280;49858;48.956;9.076;2022-07-06T10:20:17;99451.84;;;28.23;31.95
63715;BME280;49858;48.956;9.076;2022-07-06T10:22:44;99445.09;;;27.86;33.08
63715;BME280;49858;48.956;9.076;2022-07-06T10:25:14;99447.56;;;29.87;30.22
63715;BME280;49858;48.956;9.076;2022-07-06T10:27:42;99454.69;;;26.57;33.77
63715;BME280;49858;48.956;9.076;2022-07-06T10:30:10;99453.72;;;28.83;31.38
63715;BME280;49858;48.956;9.076;2022-07-06T10:32:39;99447.78;;;27.89;32.52
63715;BME280;49858;48.956;9.076;2022-07-06T10:35:08;99446.66;;;25.65;36.29
63715;BME280;49858;48.956;9.076;2022-07-06T10:37:35;99452.25;;;27.99;32.97
63715;BME280;49858;48.956;9.076;2022-07-06T10:40:02;99443.38;;;29.51;29.92
63715;BME280;49858;48.956;9.076;2022-07-06T10:42:45;99450.50;;;29.24;29.86
63715;BME280;49858;48.956;9.076;2022-07-06T10:45:20;99447.38;;;29.22;29.98
63715;BME280;49858;48.956;9.076;2022-07-06T10:47:47;99446.03;;;30.04;28.80
63715;BME280;49858;48.956;9.076;2022-07-06T10:50:18;99445.72;;;30.57;28.22
63715;BME280;49858;48.956;9.076;2022-07-06T10:52:49;99442.06;;;31.69;27.09
63715;BME280;49858;48.956;9.076;2022-07-06T10:55:30;99448.06;;;30.13;28.45
63715;BME280;49858;48.956;9.076;2022-07-06T10:57:59;99437.97;;;29.44;30.69
63715;BME280;49858;48.956;9.076;2022-07-06T11:00:26;99447.16;;;30.34;29.07
63715;BME280;49858;48.956;9.076;2022-07-06T11:02:53;99439.91;;;31.21;27.20
63715;BME280;49858;48.956;9.076;2022-07-06T11:05:41;99439.09;;;29.46;30.57
63715;BME280;49858;48.956;9.076;2022-07-06T11:08:09;99438.19;;;30.26;28.21
63715;BME280;49858;48.956;9.076;2022-07-06T11:10:46;99437.63;;;28.70;30.59
63715;BME280;49858;48.956;9.076;2022-07-06T11:13:26;99438.72;;;31.70;26.49
63715;BME280;49858;48.956;9.076;2022-07-06T11:16:00;99439.06;;;30.88;27.30
63715;BME280;49858;48.956;9.076;2022-07-06T11:18:38;99439.41;;;30.53;28.07
63715;BME280;49858;48.956;9.076;2022-07-06T11:21:17;99428.75;;;30.99;27.06
63715;BME280;49858;48.956;9.076;2022-07-06T11:23:46;99442.88;;;30.39;28.08
63715;BME280;49858;48.956;9.076;2022-07-06T11:26:14;99440.34;;;27.06;33.92
63715;BME280;49858;48.956;9.076;2022-07-06T11:28:46;99438.00;;;27.17;32.38
63715;BME280;49858;48.956;9.076;2022-07-06T11:31:14;99427.47;;;25.76;35.07
63715;BME280;49858;48.956;9.076;2022-07-06T11:33:44;99420.00;;;28.32;31.25
63715;BME280;49858;48.956;9.076;2022-07-06T11:36:15;99415.22;;;25.83;34.35
63715;BME280;49858;48.956;9.076;2022-07-06T11:38:43;99427.56;;;26.89;32.01
63715;BME280;49858;48.956;9.076;2022-07-06T11:41:11;99418.59;;;24.72;35.56
63715;BME280;49858;48.956;9.076;2022-07-06T11:43:39;99425.56;;;24.25;36.26
63715;BME280;49858;48.956;9.076;2022-07-06T11:46:26;99420.13;;;27.33;32.93
63715;BME280;49858;48.956;9.076;2022-07-06T11:48:55;99415.34;;;28.82;30.10
63715;BME280;49858;48.956;9.076;2022-07-06T11:51:23;99421.69;;;29.57;28.68
63715;BME280;49858;48.956;9.076;2022-07-06T11:53:51;99407.03;;;30.87;26.44
63715;BME280;49858;48.956;9.076;2022-07-06T11:56:18;99420.50;;;26.55;32.46
63715;BME280;49858;48.956;9.076;2022-07-06T11:58:49;99428.06;;;24.62;35.85
63715;BME280;49858;48.956;9.076;2022-07-06T12:01:16;99410.56;;;24.11;37.56
63715;BME280;49858;48.956;9.076;2022-07-06T12:03:45;99421.59;;;26.87;33.39
63715;BME280;49858;48.956;9.076;2022-07-06T12:06:14;99417.44;;;27.30;32.25
63715;BME280;49858;48.956;9.076;2022-07-06T12:08:44;99417.28;;;27.59;31.62
63715;BME280;49858;48.956;9.076;2022-07-06T12:11:20;99410.56;;;27.91;31.15
63715;BME280;49858;48.956;9.076;2022-07-06T12:13:47;99411.66;;;26.82;31.61
63715;BME280;49858;48.956;9.076;2022-07-06T12:16:15;99415.66;;;25.32;33.86
63715;BME280;49858;48.956;9.076;2022-07-06T12:18:43;99412.72;;;29.68;29.02
63715;BME280;49858;48.956;9.076;2022-07-06T12:21:13;99406.88;;;27.68;30.67
63715;BME280;49858;48.956;9.076;2022-07-06T12:23:43;99409.13;;;29.86;27.86
63715;BME280;49858;48.956;9.076;2022-07-06T12:26:11;99416.72;;;28.11;30.33
63715;BME280;49858;48.956;9.076;2022-07-06T12:28:38;99400.72;;;28.17;29.98
63715;BME280;49858;48.956;9.076;2022-07-06T12:31:05;99407.09;;;29.27;28.77
63715;BME280;49858;48.956;9.076;2022-07-06T12:33:31;99416.25;;;25.72;32.64
63715;BME280;49858;48.956;9.076;2022-07-06T12:36:09;99412.91;;;27.07;31.41
63715;BME280;49858;48.956;9.076;2022-07-06T12:38:44;99395.50;;;26.83;31.10
63715;BME280;49858;48.956;9.076;2022-07-06T12:41:11;99395.38;;;27.97;30.03
63715;BME280;49858;48.956;9.076;2022-07-06T12:43:48;99406.03;;;30.99;26.18
63715;BME280;49858;48.956;9.076;2022-07-06T12:46:29;99385.44;;;31.14;25.44
63715;BME280;49858;48.956;9.076;2022-07-06T12:48:57;99401.16;;;30.91;25.79
63715;BME280;49858;48.956;9.076;2022-07-06T12:51:25;99398.44;;;32.49;23.85
63715;BME280;49858;48.956;9.076;2022-07-06T12:54:11;99405.00;;;31.54;24.72
63715;BME280;49858;48.956;9.076;2022-07-06T12:56:56;99386.25;;;29.71;26.14
63715;BME280;49858;48.956;9.076;2022-07-06T12:59:23;99398.25;;;27.24;30.08
63715;BME280;49858;48.956;9.076;2022-07-06T13:01:51;99393.06;;;27.83;29.70
63715;BME280;49858;48.956;9.076;2022-07-06T13:04:21;99395.31;;;25.08;33.51
63715;BME280;49858;48.956;9.076;2022-07-06T13:06:48;99377.66;;;26.02;32.53